Česky Dansk Deutsch English Español Suomi Français Magyar Italiano Nederlands norsk Polski Português svenska Türkçe

 

Het Weer

Mercedes (Uruguay)

10:00, 30 juli 2016 (GMT)

NWNNE
WE
SWSSE
Thuis            
Mercedes Gualeguaychu Aerodrome Paysandu Colonia San Fernando, BA Durazno Don Torcuato Aerodrome Aeroparque Bs. As. Aerodrome Buenos Aires Observatorio El Palomar Aerodrome Ezeiza Aerodrome Villaguay Aerodrome La Plata Aerodrome Salto Concordia Aerodrome Melilla Rosario Aerodrome Carrasco Tacuarembo Parana Aerodrome Junin Aerodrome Sauce Viejo Aerodrome Capitan Corbeta

Om een weerknop op uw website of weblog te plaatsen, copieer onderstaande code en plak die in uw pagina. In het eerste vakje staat HTML-code, in het tweede vakje UBB-code.


Add to Google

Details

Windsnelheid:2 bf, 6 kn, 3.1 m/s, 6.9 miles/h, 11.1 km/h
Windrichting:ONO, 060°
Zicht:Meer dan 10000 m, 10 km, 32800 ft, 6.2 miles
Wolken:CAVOC
Temperatuur:11°C, 52°F
Dauwpunt:10°C, 50°F
Luchtdruk:1018 hPa, 763.6 mmHg, 30.06 inHg, 1.005 atm
Relative luchtvochtigheid:93.5 %
METAR:SUME 301000Z 06006KT CAVOK 11/10 Q1018

Snelkoppelingen

Actuele weersinformatie van de hele wereld. Voeg locaties toe met het plus (+) symbool. Deze snelkoppelingen kunnen worden toegevoegd aan Google.

Lid van de Technetium groep

website free tracking
StatCounter NetStat W3C Validator

18-08-2019 05:20:56
astro.technetium.be money.technetium.be phote.technetium.be tafeltennistafel.technetium.be www.ligfiets.net